Time;durP1;ratioP1;P1;durP2;ratioP2;P2;SDS_P1;SDS_P2;PMS_P1;PMS_P2;Temp;Humidity;BMP_temperature;BMP_pressure;BME280_temperature;BME280_humidity;BME280_pressure;Samples;Min_cycle;Max_cycle;Signal;HPM_P1;HPM_P2
2022/01/25 00:09:59;;;;;;;22.17;13.77;;;3.90;99.90;;;;;;6214593;23;20083;-88
2022/01/25 00:33:23;;;;;;;25.65;17.92;;;3.80;99.90;;;;;;6211780;23;20004;-87
2022/01/25 00:35:48;;;;;;;27.40;17.08;;;3.60;99.90;;;;;;6184445;23;20027;-87
2022/01/25 00:38:14;;;;;;;24.08;16.52;;;3.70;99.90;;;;;;6185665;23;20035;-88
2022/01/25 00:40:40;;;;;;;33.22;17.35;;;3.70;99.90;;;;;;6204793;23;20039;-88
2022/01/25 00:43:05;;;;;;;22.60;16.10;;;3.70;99.90;;;;;;6210638;23;20084;-87
2022/01/25 00:45:31;;;;;;;24.98;17.20;;;3.60;99.90;;;;;;6185461;23;20016;-87
2022/01/25 00:47:56;;;;;;;24.67;15.50;;;3.60;99.90;;;;;;6186323;23;20011;-87
2022/01/25 00:50:23;;;;;;;26.30;16.35;;;3.70;99.90;;;;;;6186839;23;20000;-88
2022/01/25 00:55:14;;;;;;;24.20;16.17;;;3.70;99.90;;;;;;6208472;23;20357;-87
2022/01/25 00:57:40;;;;;;;30.40;19.80;;;3.70;99.90;;;;;;6187474;23;20039;-88
2022/01/25 01:00:08;;;;;;;27.92;16.85;;;3.80;99.90;;;;;;6188177;23;20016;-88
2022/01/25 01:02:34;;;;;;;23.67;15.98;;;3.70;99.90;;;;;;6187685;23;20466;-88
2022/01/25 01:04:59;;;;;;;29.50;18.10;;;3.70;99.90;;;;;;6187078;23;20016;-88
2022/01/25 01:07:25;;;;;;;28.33;15.25;;;3.70;99.90;;;;;;6187125;23;20008;-88
2022/01/25 01:09:52;;;;;;;25.75;16.90;;;3.70;99.90;;;;;;6182745;23;20032;-87
2022/01/25 01:12:43;;;;;;;21.45;14.00;;;3.80;99.90;;;;;;6185790;23;20380;-88
2022/01/25 01:15:18;;;;;;;27.00;16.63;;;3.80;99.90;;;;;;6215363;23;20018;-89
2022/01/25 01:31:48;;;;;;;18.67;11.48;;;3.70;99.90;;;;;;6215220;23;20034;-88
2022/01/25 01:44:37;;;;;;;21.52;14.55;;;3.80;99.90;;;;;;6212758;23;20023;-88
2022/01/25 01:49:30;;;;;;;22.23;12.55;;;3.80;99.90;;;;;;6211023;23;20014;-87
2022/01/25 01:51:55;;;;;;;18.15;12.02;;;3.70;99.90;;;;;;6186060;23;20054;-87
2022/01/25 01:54:21;;;;;;;21.13;12.75;;;3.80;99.90;;;;;;6184156;23;20445;-89
2022/01/25 01:56:47;;;;;;;24.85;16.52;;;3.90;99.90;;;;;;6186893;23;20453;-89
2022/01/25 01:59:14;;;;;;;28.90;15.18;;;4.00;99.90;;;;;;6186441;23;20016;-87
2022/01/25 02:01:41;;;;;;;25.63;15.40;;;3.90;99.90;;;;;;6185454;23;20015;-88
2022/01/25 02:04:07;;;;;;;19.30;12.63;;;3.80;99.90;;;;;;6185525;23;20015;-89
2022/01/25 02:06:33;;;;;;;21.15;14.63;;;3.90;99.90;;;;;;6184691;23;20016;-87
2022/01/25 02:08:59;;;;;;;31.83;17.88;;;3.90;99.90;;;;;;6209253;23;20020;-87
2022/01/25 02:11:24;;;;;;;28.85;17.95;;;3.90;99.90;;;;;;6185379;23;20012;-88
2022/01/25 02:13:50;;;;;;;29.88;16.77;;;3.90;99.90;;;;;;6185230;23;20016;-88
2022/01/25 02:16:40;;;;;;;33.88;17.27;;;3.80;99.90;;;;;;6211553;23;20043;-88
2022/01/25 02:24:39;;;;;;;29.92;17.60;;;3.80;99.90;;;;;;6214751;23;20023;-87
2022/01/25 02:27:05;;;;;;;31.48;17.58;;;3.80;99.90;;;;;;6185081;23;20012;-88
2022/01/25 02:29:30;;;;;;;23.88;14.43;;;3.80;99.90;;;;;;6184415;23;20016;-87
2022/01/25 02:31:56;;;;;;;23.15;13.60;;;3.80;99.90;;;;;;6180779;23;20058;-88
2022/01/25 02:34:22;;;;;;;31.08;18.27;;;3.90;99.90;;;;;;6183012;23;20321;-87
2022/01/25 02:37:01;;;;;;;35.92;20.63;;;3.80;99.90;;;;;;6186566;23;20016;-87
2022/01/25 02:39:27;;;;;;;25.10;14.25;;;3.80;99.90;;;;;;6185326;23;20008;-88
2022/01/25 02:41:53;;;;;;;33.28;19.48;;;3.80;99.90;;;;;;6184895;23;20627;-88
2022/01/25 02:44:24;;;;;;;23.08;13.70;;;3.70;99.90;;;;;;6186643;23;20023;-87
2022/01/25 02:49:17;;;;;;;34.28;20.38;;;3.90;99.90;;;;;;6211210;23;20014;-89
2022/01/25 02:51:47;;;;;;;32.38;16.52;;;3.80;99.90;;;;;;6180710;23;20067;-87
2022/01/25 02:54:13;;;;;;;38.60;19.85;;;3.80;99.90;;;;;;6185722;23;20019;-88
2022/01/25 02:56:40;;;;;;;21.70;13.55;;;3.80;99.90;;;;;;6184818;23;20023;-87
2022/01/25 02:59:05;;;;;;;37.45;21.10;;;3.80;99.90;;;;;;6177842;23;20083;-87
2022/01/25 03:01:32;;;;;;;30.75;17.75;;;3.70;99.90;;;;;;6184649;23;20628;-87
2022/01/25 03:03:57;;;;;;;34.88;20.88;;;3.70;99.90;;;;;;6185168;23;20008;-87
2022/01/25 03:06:23;;;;;;;29.27;16.35;;;3.70;99.90;;;;;;6181972;23;20111;-87
2022/01/25 03:08:49;;;;;;;33.10;21.27;;;3.80;99.90;;;;;;6183185;23;20018;-88
2022/01/25 03:11:15;;;;;;;30.58;16.52;;;3.80;99.90;;;;;;6180989;23;20082;-87
2022/01/25 03:13:52;;;;;;;34.50;17.55;;;3.80;99.90;;;;;;6183246;23;20051;-88
2022/01/25 03:16:29;;;;;;;39.25;19.45;;;3.90;99.90;;;;;;6183264;23;20015;-88
2022/01/25 03:18:57;;;;;;;39.95;21.42;;;3.80;99.90;;;;;;6187232;23;20128;-88
2022/01/25 03:23:54;;;;;;;24.67;15.48;;;3.70;99.90;;;;;;6208172;23;20004;-88
2022/01/25 03:26:20;;;;;;;30.35;16.08;;;3.70;99.90;;;;;;6183241;23;20008;-87
2022/01/25 03:28:46;;;;;;;26.88;15.60;;;3.70;99.90;;;;;;6180167;23;20010;-88
2022/01/25 03:31:11;;;;;;;32.92;17.63;;;3.60;99.90;;;;;;6184724;23;20012;-88
2022/01/25 03:33:37;;;;;;;29.13;15.70;;;3.70;99.90;;;;;;6184016;23;20020;-89
2022/01/25 03:36:03;;;;;;;27.92;16.05;;;3.60;99.90;;;;;;6184447;23;20103;-88
2022/01/25 03:38:29;;;;;;;36.65;20.33;;;3.60;99.90;;;;;;6184408;23;20011;-87
2022/01/25 03:40:54;;;;;;;35.15;19.58;;;3.70;99.90;;;;;;6183896;23;20016;-88
2022/01/25 03:43:20;;;;;;;25.10;15.05;;;3.60;99.90;;;;;;6185206;23;20004;-87
2022/01/25 03:45:58;;;;;;;26.08;15.55;;;3.60;99.90;;;;;;6184879;23;20004;-89
2022/01/25 03:50:50;;;;;;;28.80;16.88;;;3.80;99.90;;;;;;6209100;23;20367;-88
2022/01/25 03:53:17;;;;;;;28.42;17.15;;;3.80;99.90;;;;;;6184425;23;20407;-88
2022/01/25 03:55:43;;;;;;;36.88;20.42;;;3.80;99.90;;;;;;6184659;23;20008;-88
2022/01/25 03:58:08;;;;;;;35.53;19.73;;;3.80;99.90;;;;;;6179580;23;20016;-88
2022/01/25 04:00:35;;;;;;;36.30;20.10;;;3.80;99.90;;;;;;6186556;23;20062;-91
2022/01/25 04:03:09;;;;;;;43.28;22.10;;;3.70;99.90;;;;;;6188022;23;20127;-91
2022/01/25 04:08:11;;;;;;;30.88;16.27;;;3.60;99.90;;;;;;6214841;23;20058;-92
2022/01/25 04:10:37;;;;;;;27.38;15.82;;;3.60;99.90;;;;;;6187308;23;20015;-92
2022/01/25 04:13:04;;;;;;;31.85;16.38;;;3.60;99.90;;;;;;6187790;23;20012;-91
2022/01/25 04:15:30;;;;;;;29.58;15.57;;;3.60;99.90;;;;;;6187907;23;20358;-92
2022/01/25 04:18:03;;;;;;;40.70;22.63;;;3.60;99.90;;;;;;6188178;23;20008;-92
2022/01/25 04:20:33;;;;;;;30.55;16.40;;;3.70;99.90;;;;;;6189004;23;20016;-92
2022/01/25 04:25:43;;;;;;;40.60;20.38;;;3.80;99.90;;;;;;6219203;23;20019;-91
2022/01/25 04:28:09;;;;;;;34.45;18.52;;;3.70;99.90;;;;;;6185282;23;20008;-92
2022/01/25 04:30:34;;;;;;;33.80;18.23;;;3.70;99.90;;;;;;6188485;23;20019;-92
2022/01/25 04:33:04;;;;;;;34.83;19.85;;;3.70;99.90;;;;;;6187118;23;20095;-92
2022/01/25 04:49:10;;;;;;;36.30;19.70;;;3.40;99.90;;;;;;6217335;23;20015;-92
2022/01/25 05:01:57;;;;;;;38.42;19.30;;;3.50;99.90;;;;;;6191144;23;20070;-91
2022/01/25 05:04:25;;;;;;;32.00;17.50;;;3.50;99.90;;;;;;6188285;23;20005;-92
2022/01/25 05:06:54;;;;;;;35.42;18.92;;;3.60;99.90;;;;;;6190162;23;20008;-92
2022/01/25 05:09:20;;;;;;;32.65;16.80;;;3.60;99.90;;;;;;6190532;23;20632;-92
2022/01/25 05:11:48;;;;;;;33.38;18.00;;;3.60;99.90;;;;;;6187873;23;20391;-91
2022/01/25 05:14:33;;;;;;;36.03;18.00;;;3.60;99.90;;;;;;6188567;23;20012;-92
2022/01/25 05:17:01;;;;;;;29.05;16.85;;;3.60;99.90;;;;;;6191676;23;20016;-92
2022/01/25 05:22:25;;;;;;;36.75;19.38;;;3.50;99.90;;;;;;6215882;23;20019;-92
2022/01/25 05:24:52;;;;;;;27.15;14.52;;;3.50;99.90;;;;;;6191412;23;20023;-92
2022/01/25 05:27:19;;;;;;;34.55;19.27;;;3.50;99.90;;;;;;6188334;23;20034;-92
2022/01/25 05:29:44;;;;;;;40.45;20.20;;;3.60;99.90;;;;;;6174092;23;20345;-91
2022/01/25 05:32:10;;;;;;;31.70;16.90;;;3.60;99.90;;;;;;6188292;23;20012;-91
2022/01/25 05:34:36;;;;;;;36.17;19.05;;;3.70;99.90;;;;;;6186151;23;20012;-92
2022/01/25 05:37:03;;;;;;;33.40;18.02;;;3.60;99.90;;;;;;6188125;23;20012;-92
2022/01/25 05:39:32;;;;;;;34.60;18.75;;;3.60;99.90;;;;;;6186954;23;20012;-92
2022/01/25 05:44:54;;;;;;;35.53;18.42;;;3.50;99.90;;;;;;6216109;23;20016;-92
2022/01/25 05:47:32;;;;;;;31.65;16.60;;;3.50;99.90;;;;;;6189367;23;20079;-91
2022/01/25 05:50:06;;;;;;;37.10;17.90;;;3.60;99.90;;;;;;6188925;23;20020;-92
2022/01/25 05:52:31;;;;;;;28.10;15.82;;;3.60;99.90;;;;;;6187853;23;20087;-92
2022/01/25 05:54:59;;;;;;;31.90;15.45;;;3.50;99.90;;;;;;6187173;23;20012;-91
2022/01/25 05:57:25;;;;;;;30.45;16.40;;;3.50;99.90;;;;;;6189411;23;20016;-93
2022/01/25 05:59:51;;;;;;;36.70;18.77;;;3.60;99.90;;;;;;6189605;23;20538;-92
2022/01/25 06:02:19;;;;;;;36.13;16.88;;;3.50;99.90;;;;;;6188486;23;20019;-94
2022/01/25 06:04:45;;;;;;;38.70;20.17;;;3.50;99.90;;;;;;6191072;23;20016;-92
2022/01/25 06:07:11;;;;;;;35.05;18.65;;;3.50;99.90;;;;;;6187909;23;20009;-93
2022/01/25 06:09:36;;;;;;;43.38;21.45;;;3.50;99.90;;;;;;6188010;23;20023;-92
2022/01/25 06:12:02;;;;;;;29.52;14.90;;;3.40;99.90;;;;;;6187829;23;20020;-92
2022/01/25 06:14:28;;;;;;;30.92;17.55;;;3.40;99.90;;;;;;6185617;23;20015;-92
2022/01/25 06:16:54;;;;;;;37.38;20.85;;;3.50;99.90;;;;;;6189473;23;20012;-92
2022/01/25 06:19:20;;;;;;;44.70;22.50;;;3.40;99.90;;;;;;6185609;23;20460;-92
2022/01/25 06:21:46;;;;;;;32.00;16.35;;;3.40;99.90;;;;;;6185166;23;20387;-92
2022/01/25 06:24:12;;;;;;;31.48;14.38;;;3.40;99.90;;;;;;6188156;23;20105;-91
2022/01/25 06:26:37;;;;;;;37.53;19.77;;;3.40;99.90;;;;;;6187242;23;20012;-93
2022/01/25 06:29:04;;;;;;;27.27;14.00;;;3.50;99.90;;;;;;6186721;23;20028;-92
2022/01/25 06:31:31;;;;;;;34.65;17.33;;;3.50;99.90;;;;;;6187124;23;20068;-92
2022/01/25 06:33:57;;;;;;;33.50;17.60;;;3.40;99.90;;;;;;6187345;23;20062;-93
2022/01/25 06:36:23;;;;;;;44.47;21.38;;;3.40;99.90;;;;;;6188978;23;20073;-91
2022/01/25 06:38:48;;;;;;;33.83;16.38;;;3.50;99.90;;;;;;6186770;23;20087;-92
2022/01/25 06:41:17;;;;;;;38.88;19.73;;;3.50;99.90;;;;;;6186414;23;20019;-93
2022/01/25 06:43:42;;;;;;;27.42;15.38;;;3.50;99.90;;;;;;6187317;23;20031;-92
2022/01/25 06:46:08;;;;;;;30.58;15.82;;;3.50;99.90;;;;;;6188803;23;20004;-92
2022/01/25 06:48:33;;;;;;;37.50;20.73;;;3.50;99.90;;;;;;6172824;23;20411;-92
2022/01/25 06:51:38;;;;;;;39.05;19.05;;;3.50;99.90;;;;;;6164089;23;20020;-94
2022/01/25 06:54:04;;;;;;;34.35;16.15;;;3.50;99.90;;;;;;6213042;23;20004;-93
2022/01/25 06:56:29;;;;;;;31.60;15.70;;;3.40;99.90;;;;;;6188114;23;20083;-96
2022/01/25 06:58:55;;;;;;;37.38;18.92;;;3.40;99.90;;;;;;6187061;23;20440;-93
2022/01/25 07:01:21;;;;;;;35.17;16.17;;;3.60;99.90;;;;;;6187904;23;20015;-93
2022/01/25 07:03:46;;;;;;;30.05;16.88;;;3.60;99.90;;;;;;6189163;23;20012;-92
2022/01/25 07:06:12;;;;;;;35.92;17.42;;;3.60;99.90;;;;;;6187912;23;20460;-93
2022/01/25 07:08:38;;;;;;;29.60;15.65;;;3.60;99.90;;;;;;6191270;23;20392;-93
2022/01/25 07:11:03;;;;;;;29.10;15.45;;;3.50;99.90;;;;;;6189927;23;20008;-93
2022/01/25 07:13:29;;;;;;;34.50;18.02;;;3.50;99.90;;;;;;6185488;23;20392;-93
2022/01/25 07:15:55;;;;;;;36.67;18.35;;;3.40;99.90;;;;;;6190808;23;20004;-93
2022/01/25 07:18:20;;;;;;;40.47;20.15;;;3.40;99.90;;;;;;6176618;23;20079;-93
2022/01/25 07:20:54;;;;;;;36.15;19.25;;;3.50;99.90;;;;;;6162870;23;20008;-92
2022/01/25 07:23:22;;;;;;;31.30;14.70;;;3.40;99.90;;;;;;6188713;23;20011;-92
2022/01/25 07:25:48;;;;;;;33.58;17.92;;;3.50;99.90;;;;;;6187063;23;20020;-92
2022/01/25 07:28:13;;;;;;;45.85;21.55;;;3.40;99.90;;;;;;6188291;23;20060;-92
2022/01/25 07:30:39;;;;;;;46.17;19.92;;;3.40;99.90;;;;;;6189999;23;20012;-91
2022/01/25 07:33:06;;;;;;;34.35;17.75;;;3.40;99.90;;;;;;6188342;23;20008;-93
2022/01/25 07:35:45;;;;;;;43.80;22.73;;;3.40;99.90;;;;;;6186402;23;20062;-91
2022/01/25 07:38:11;;;;;;;31.90;15.60;;;3.50;99.90;;;;;;6190407;23;20016;-92
2022/01/25 07:40:38;;;;;;;42.42;20.33;;;3.50;99.90;;;;;;6187331;23;20055;-92
2022/01/25 07:43:07;;;;;;;35.72;17.08;;;3.50;99.90;;;;;;6188749;23;20015;-92
2022/01/25 07:45:35;;;;;;;40.00;19.60;;;3.50;99.90;;;;;;6188791;23;20009;-92
2022/01/25 07:48:07;;;;;;;41.47;20.77;;;3.50;99.90;;;;;;6188650;23;20044;-92
2022/01/25 07:50:33;;;;;;;40.50;19.73;;;3.40;99.90;;;;;;6186629;23;20016;-92
2022/01/25 07:52:59;;;;;;;33.83;17.35;;;3.50;99.90;;;;;;6188760;23;20356;-91
2022/01/25 07:55:25;;;;;;;39.53;19.70;;;3.40;99.90;;;;;;6167532;23;20111;-92
2022/01/25 07:57:51;;;;;;;31.05;16.73;;;3.40;99.90;;;;;;6139381;23;20027;-92
2022/01/25 08:00:17;;;;;;;41.97;19.95;;;3.40;99.90;;;;;;6188779;23;20019;-93
2022/01/25 08:02:46;;;;;;;41.55;20.27;;;3.50;99.90;;;;;;6189276;23;20016;-92
2022/01/25 08:05:15;;;;;;;42.92;21.83;;;3.40;99.90;;;;;;6187765;23;20004;-92
2022/01/25 08:07:41;;;;;;;33.28;16.20;;;3.40;99.90;;;;;;6189615;23;20016;-93
2022/01/25 08:10:07;;;;;;;37.85;19.25;;;3.40;99.90;;;;;;6190458;23;20019;-92
2022/01/25 08:12:33;;;;;;;40.25;19.98;;;3.50;99.90;;;;;;6186792;23;20082;-92
2022/01/25 08:15:03;;;;;;;36.63;18.17;;;3.40;99.90;;;;;;6189748;23;19992;-91
2022/01/25 08:17:29;;;;;;;41.10;19.05;;;3.40;99.90;;;;;;6150076;23;20028;-91
2022/01/25 08:19:54;;;;;;;49.78;23.02;;;3.40;99.90;;;;;;6145750;23;20126;-91
2022/01/25 08:22:20;;;;;;;47.47;22.75;;;3.50;99.90;;;;;;6184729;23;20095;-91
2022/01/25 08:24:46;;;;;;;37.85;18.00;;;3.40;99.90;;;;;;6188625;23;20031;-93
2022/01/25 08:27:12;;;;;;;37.20;19.75;;;3.40;99.90;;;;;;6185469;23;20011;-91
2022/01/25 08:29:38;;;;;;;48.97;24.30;;;3.40;99.90;;;;;;6187704;23;20070;-91
2022/01/25 08:32:05;;;;;;;31.67;16.13;;;3.40;99.90;;;;;;6188532;23;20008;-91
2022/01/25 08:34:32;;;;;;;40.40;21.58;;;3.50;99.90;;;;;;6184034;23;20012;-92
2022/01/25 08:36:58;;;;;;;37.90;19.05;;;3.50;99.90;;;;;;6189061;23;20036;-91
2022/01/25 08:39:26;;;;;;;41.97;21.85;;;3.50;99.90;;;;;;6188550;23;20008;-93
2022/01/25 08:41:54;;;;;;;54.05;25.45;;;3.40;99.90;;;;;;6186181;23;20036;-91
2022/01/25 08:44:22;;;;;;;48.28;23.15;;;3.50;99.90;;;;;;6188691;23;19993;-91
2022/01/25 08:46:48;;;;;;;51.00;24.08;;;3.40;99.90;;;;;;6186735;23;20070;-93
2022/01/25 08:49:16;;;;;;;38.90;20.88;;;3.40;99.90;;;;;;6185743;23;20285;-91
2022/01/25 08:51:41;;;;;;;47.17;22.40;;;3.40;99.90;;;;;;6187869;23;20012;-93
2022/01/25 08:54:07;;;;;;;45.00;23.27;;;3.50;99.90;;;;;;6188498;23;20322;-91
2022/01/25 08:56:33;;;;;;;44.90;23.33;;;3.50;99.90;;;;;;6188018;23;20016;-93
2022/01/25 08:58:59;;;;;;;51.25;23.52;;;3.40;99.90;;;;;;6178110;23;20535;-93
2022/01/25 09:01:26;;;;;;;50.00;23.23;;;3.50;99.90;;;;;;6176651;23;20016;-93
2022/01/25 09:03:54;;;;;;;52.97;24.83;;;3.60;99.90;;;;;;6187265;23;20330;-93
2022/01/25 09:06:20;;;;;;;57.75;25.52;;;3.50;99.90;;;;;;6190751;23;20449;-93
2022/01/25 09:08:46;;;;;;;59.67;25.00;;;3.40;99.90;;;;;;6189872;23;20064;-95
2022/01/25 09:11:12;;;;;;;28.60;14.73;;;3.40;99.90;;;;;;6187984;23;20492;-93
2022/01/25 09:13:38;;;;;;;43.17;20.63;;;3.60;99.90;;;;;;6191197;23;20015;-93
2022/01/25 09:16:04;;;;;;;39.08;20.75;;;3.70;99.90;;;;;;6190998;23;20036;-93
2022/01/25 09:18:30;;;;;;;45.97;22.65;;;3.60;99.90;;;;;;6191655;23;20012;-93
2022/01/25 09:20:56;;;;;;;37.40;20.20;;;3.60;99.90;;;;;;6189252;23;20008;-92
2022/01/25 09:23:23;;;;;;;38.08;18.40;;;3.60;99.90;;;;;;6192198;23;20004;-92
2022/01/25 09:25:49;;;;;;;49.85;24.15;;;3.70;99.90;;;;;;6188315;23;20043;-92
2022/01/25 09:28:15;;;;;;;40.42;19.90;;;3.70;99.90;;;;;;6191940;23;20024;-91
2022/01/25 09:30:40;;;;;;;47.58;24.48;;;3.60;99.90;;;;;;6189790;23;20013;-92
2022/01/25 09:33:06;;;;;;;39.55;20.40;;;3.70;99.90;;;;;;6187796;23;20017;-95
2022/01/25 09:35:32;;;;;;;39.17;19.42;;;3.70;99.90;;;;;;6187773;23;20017;-91
2022/01/25 09:37:58;;;;;;;49.13;24.10;;;3.70;99.90;;;;;;6188186;23;20015;-92
2022/01/25 09:40:24;;;;;;;45.97;23.10;;;3.80;99.90;;;;;;6184763;23;20023;-93
2022/01/25 09:42:53;;;;;;;39.30;19.75;;;3.80;99.90;;;;;;6189421;23;20039;-92
2022/01/25 09:45:19;;;;;;;36.20;18.13;;;3.80;99.90;;;;;;6191433;23;20012;-92
2022/01/25 09:47:45;;;;;;;47.55;22.38;;;3.90;99.90;;;;;;6188857;23;20012;-93
2022/01/25 09:50:11;;;;;;;42.10;21.95;;;3.90;99.90;;;;;;6189453;23;20008;-92
2022/01/25 09:52:37;;;;;;;53.70;24.08;;;3.90;99.90;;;;;;6189801;23;20340;-92
2022/01/25 09:55:09;;;;;;;45.97;21.83;;;3.90;99.90;;;;;;6188772;23;20004;-92
2022/01/25 09:57:35;;;;;;;37.15;19.38;;;4.00;99.90;;;;;;6190278;23;20024;-94
2022/01/25 10:00:00;;;;;;;43.35;22.42;;;3.90;99.90;;;;;;6214706;23;20012;-92
2022/01/25 10:02:50;;;;;;;31.48;16.10;;;4.00;99.90;;;;;;6190405;23;20016;-93
2022/01/25 10:05:24;;;;;;;32.63;17.45;;;4.00;99.90;;;;;;6167389;23;20584;-93
2022/01/25 10:08:10;;;;;;;39.20;20.27;;;4.00;99.90;;;;;;6188642;23;20098;-92
2022/01/25 10:10:37;;;;;;;37.22;18.02;;;4.10;99.90;;;;;;6164734;23;20012;-92
2022/01/25 10:13:10;;;;;;;46.63;22.65;;;4.10;99.90;;;;;;6189824;23;20012;-93
2022/01/25 10:15:36;;;;;;;37.97;17.63;;;4.10;99.90;;;;;;6187191;23;20012;-92
2022/01/25 10:18:02;;;;;;;38.22;20.17;;;4.10;99.90;;;;;;6189549;23;20392;-92
2022/01/25 10:20:32;;;;;;;42.97;21.95;;;4.10;99.90;;;;;;6188003;23;20819;-92
2022/01/25 10:23:00;;;;;;;48.45;24.73;;;4.10;99.90;;;;;;6189058;23;20019;-93
2022/01/25 10:25:37;;;;;;;44.50;23.30;;;4.20;99.90;;;;;;6189779;23;20311;-92
2022/01/25 10:28:11;;;;;;;40.47;19.27;;;4.20;99.90;;;;;;6190028;23;20119;-93
2022/01/25 10:30:45;;;;;;;50.17;27.10;;;4.20;99.90;;;;;;6188733;23;20016;-92
2022/01/25 10:33:40;;;;;;;53.22;25.33;;;4.20;99.90;;;;;;6190415;23;20012;-93
2022/01/25 10:36:15;;;;;;;38.75;19.63;;;4.30;99.90;;;;;;6187569;23;20091;-95
2022/01/25 10:38:42;;;;;;;46.90;24.00;;;4.20;99.90;;;;;;6187073;23;20031;-92
2022/01/25 10:41:10;;;;;;;50.53;25.90;;;4.30;99.90;;;;;;6189047;23;20297;-94
2022/01/25 10:43:36;;;;;;;39.80;21.73;;;4.30;99.90;;;;;;6189200;23;20436;-94
2022/01/25 10:46:26;;;;;;;42.40;23.58;;;4.30;99.90;;;;;;6183672;23;20083;-93
2022/01/25 10:48:52;;;;;;;38.47;20.40;;;4.30;99.90;;;;;;6214553;23;20137;-95
2022/01/25 10:51:33;;;;;;;42.80;22.08;;;4.40;99.90;;;;;;6212853;23;20043;-94
2022/01/25 10:54:02;;;;;;;47.55;24.05;;;4.40;99.90;;;;;;6213250;23;20028;-94
2022/01/25 10:56:36;;;;;;;49.88;26.23;;;4.40;99.90;;;;;;6186212;23;20452;-95
2022/01/25 10:59:03;;;;;;;46.53;26.33;;;4.40;99.90;;;;;;6189615;23;20012;-94
2022/01/25 11:01:38;;;;;;;33.13;16.80;;;4.50;99.90;;;;;;6186329;23;20421;-95
2022/01/25 11:04:11;;;;;;;45.87;23.03;;;4.50;99.90;;;;;;6189401;23;20012;-94
2022/01/25 11:06:37;;;;;;;52.95;26.95;;;4.50;99.90;;;;;;6166102;23;20023;-94
2022/01/25 11:09:05;;;;;;;48.28;22.48;;;4.50;99.90;;;;;;6190018;23;20012;-94
2022/01/25 11:11:35;;;;;;;46.65;25.17;;;4.50;99.90;;;;;;6188511;23;20047;-94
2022/01/25 11:14:50;;;;;;;37.10;18.92;;;4.60;99.90;;;;;;6188746;23;20004;-94
2022/01/25 11:16:47;;;;;;;57.60;27.45;;;4.50;99.90;;;;;;6216478;23;20070;-94
2022/01/25 11:19:13;;;;;;;44.50;24.83;;;4.70;99.90;;;;;;6189390;23;20020;-92
2022/01/25 11:22:17;;;;;;;;;;;;;;;;;;;;;
2022/01/25 11:25:13;;;;;;;46.22;25.48;;;4.60;99.90;;;;;;6188290;23;20137;-96
2022/01/25 11:27:57;;;;;;;52.07;25.83;;;4.60;99.90;;;;;;6177755;23;20015;-95
2022/01/25 11:30:22;;;;;;;45.92;25.30;;;4.70;99.90;;;;;;6143348;23;19999;-93
2022/01/25 11:32:49;;;;;;;45.97;24.38;;;4.60;99.90;;;;;;6160342;23;20099;-94
2022/01/25 11:35:19;;;;;;;44.08;24.35;;;4.70;99.90;;;;;;6186357;23;20012;-94
2022/01/25 11:44:26;;;;;;;;;;;4.80;99.90;;;;;;6161588;23;20024;-94
2022/01/25 11:46:57;;;;;;;47.47;22.88;;;4.70;99.90;;;;;;6159050;23;19904;-95
2022/01/25 11:49:23;;;;;;;39.92;18.58;;;4.90;99.90;;;;;;6156860;23;20017;-93
2022/01/25 11:55:20;;;;;;;47.88;24.10;;;4.90;99.90;;;;;;6192011;23;20091;-94
2022/01/25 11:57:57;;;;;;;40.35;20.83;;;4.90;99.90;;;;;;6168412;23;20025;-93
2022/01/25 12:00:43;;;;;;;43.50;21.90;;;5.00;99.90;;;;;;6159083;23;20012;-93
2022/01/25 12:03:22;;;;;;;;;;;5.00;99.90;;;;;;6184158;23;20446;-95
2022/01/25 12:06:22;;;;;;;55.38;27.20;;;5.00;99.90;;;;;;6159904;23;19904;-94
2022/01/25 12:09:41;;;;;;;50.72;25.27;;;5.00;99.90;;;;;;6162349;23;20140;-95
2022/01/25 12:12:09;;;;;;;56.70;27.33;;;5.10;99.90;;;;;;6152267;23;20009;-94
2022/01/25 12:14:44;;;;;;;51.80;25.80;;;5.00;99.90;;;;;;6134466;23;20021;-95
2022/01/25 12:17:23;;;;;;;55.58;26.23;;;5.10;99.90;;;;;;6182285;23;20020;-93
2022/01/25 12:19:58;;;;;;;62.40;26.92;;;5.10;99.90;;;;;;6160423;23;20348;-93
2022/01/25 12:22:28;;;;;;;52.40;24.88;;;5.00;99.90;;;;;;6153500;23;20009;-93
2022/01/25 12:25:18;;;;;;;55.55;27.70;;;5.10;99.90;;;;;;6182094;23;20503;-94
2022/01/25 12:27:50;;;;;;;56.20;26.30;;;5.10;99.90;;;;;;6160273;23;20017;-93
2022/01/25 12:30:19;;;;;;;57.40;26.67;;;5.10;99.90;;;;;;6180204;23;20012;-92
2022/01/25 12:32:48;;;;;;;57.28;29.02;;;5.10;99.90;;;;;;6157987;23;20020;-91
2022/01/25 12:35:16;;;;;;;53.70;27.95;;;5.10;99.90;;;;;;6158890;23;20016;-94
2022/01/25 12:37:44;;;;;;;54.40;26.15;;;5.10;99.90;;;;;;6137064;23;20028;-92
2022/01/25 12:40:25;;;;;;;60.15;29.00;;;5.20;99.90;;;;;;6145497;23;20009;-92
2022/01/25 12:43:21;;;;;;;58.20;28.65;;;5.20;99.90;;;;;;6160949;23;20023;-93
2022/01/25 12:45:52;;;;;;;51.03;25.38;;;5.20;99.90;;;;;;6149969;23;20072;-93
2022/01/25 12:48:32;;;;;;;54.08;26.02;;;5.30;99.90;;;;;;6134300;23;20012;-94
2022/01/25 12:51:03;;;;;;;57.90;29.25;;;5.20;99.90;;;;;;6135482;23;19989;-93
2022/01/25 12:53:31;;;;;;;53.15;27.73;;;5.30;99.90;;;;;;6118707;23;20009;-92
2022/01/25 12:56:02;;;;;;;53.88;27.20;;;5.30;99.90;;;;;;6157059;23;20008;-92
2022/01/25 12:58:30;;;;;;;60.83;28.90;;;5.30;99.90;;;;;;6133814;23;20008;-93
2022/01/25 13:01:02;;;;;;;50.70;24.88;;;5.30;99.90;;;;;;6133811;23;20008;-93
2022/01/25 13:03:33;;;;;;;56.13;28.65;;;5.30;99.90;;;;;;6118984;23;20033;-94
2022/01/25 13:06:19;;;;;;;47.25;24.55;;;5.30;99.90;;;;;;6157015;23;20505;-92
2022/01/25 13:09:05;;;;;;;54.88;25.63;;;5.30;99.90;;;;;;6158644;23;20008;-94
2022/01/25 13:14:31;;;;;;;55.30;25.38;;;5.30;99.90;;;;;;6160474;23;20052;-93
2022/01/25 13:17:02;;;;;;;58.70;29.02;;;5.30;99.90;;;;;;6146216;23;20017;-94
2022/01/25 13:19:36;;;;;;;59.70;27.17;;;5.40;99.90;;;;;;6118961;23;20005;-93
2022/01/25 13:22:14;;;;;;;61.30;30.60;;;5.40;99.90;;;;;;6138317;23;20358;-93
2022/01/25 13:24:55;;;;;;;59.38;28.77;;;5.40;99.90;;;;;;6136609;23;20012;-92
2022/01/25 13:27:26;;;;;;;59.90;29.52;;;5.40;99.90;;;;;;6118698;23;20005;-92
2022/01/25 13:32:45;;;;;;;62.17;28.90;;;5.40;99.90;;;;;;6168994;23;20043;-94
2022/01/25 13:35:32;;;;;;;61.58;29.92;;;5.30;99.90;;;;;;6136294;23;20009;-93
2022/01/25 13:38:12;;;;;;;62.92;29.90;;;5.40;99.90;;;;;;6161224;23;20040;-93
2022/01/25 13:41:21;;;;;;;58.28;28.23;;;5.50;99.90;;;;;;6135899;23;20021;-94
2022/01/25 13:46:29;;;;;;;54.08;23.85;;;5.40;99.90;;;;;;6160608;23;20349;-94
2022/01/25 13:49:00;;;;;;;51.33;24.95;;;5.40;99.90;;;;;;6161605;23;20020;-94
2022/01/25 13:51:28;;;;;;;60.65;27.88;;;5.50;99.90;;;;;;6135257;23;20004;-93
2022/01/25 13:53:59;;;;;;;56.15;28.70;;;5.40;99.90;;;;;;6135911;23;20013;-93
2022/01/25 13:56:31;;;;;;;56.65;27.67;;;5.50;99.90;;;;;;6134585;23;20016;-93
2022/01/25 13:58:57;;;;;;;67.97;31.02;;;5.40;99.90;;;;;;6137646;23;20011;-94
2022/01/25 14:01:24;;;;;;;65.05;30.08;;;5.50;99.90;;;;;;6134484;23;20457;-94
2022/01/25 14:03:56;;;;;;;61.45;29.05;;;5.50;99.90;;;;;;6132473;23;20429;-94
2022/01/25 14:06:28;;;;;;;65.38;30.77;;;5.50;99.90;;;;;;6160554;23;20013;-93
2022/01/25 14:09:01;;;;;;;69.03;32.13;;;5.40;99.90;;;;;;6117793;23;20400;-93
2022/01/25 14:25:30;;;;;;;69.50;30.75;;;5.50;99.90;;;;;;6168824;23;20008;-94
2022/01/25 14:27:58;;;;;;;70.10;32.22;;;5.40;99.90;;;;;;6131993;23;20020;-93
2022/01/25 14:30:23;;;;;;;68.15;31.40;;;5.50;99.90;;;;;;6125433;23;20399;-89
2022/01/25 14:33:01;;;;;;;67.47;32.22;;;5.50;99.90;;;;;;6203389;23;20010;-89
2022/01/25 14:35:26;;;;;;;64.55;30.88;;;5.50;99.90;;;;;;6176235;23;20040;-89
2022/01/25 14:37:52;;;;;;;65.63;31.00;;;5.50;99.90;;;;;;6167019;23;20042;-88
2022/01/25 14:40:18;;;;;;;62.58;28.88;;;5.60;99.90;;;;;;6176701;23;20009;-88
2022/01/25 14:42:45;;;;;;;55.50;27.38;;;5.50;99.90;;;;;;6173478;23;20339;-89
2022/01/25 14:45:22;;;;;;;60.70;30.90;;;5.40;99.90;;;;;;6178355;23;20095;-89
2022/01/25 14:47:53;;;;;;;55.40;26.25;;;5.40;99.90;;;;;;6152641;23;20380;-89
2022/01/25 14:50:23;;;;;;;58.03;27.65;;;5.40;99.90;;;;;;6175477;23;20024;-89
2022/01/25 14:53:09;;;;;;;54.20;27.60;;;5.40;99.90;;;;;;6177487;23;20024;-89
2022/01/25 14:55:36;;;;;;;53.28;25.77;;;5.40;99.90;;;;;;6165557;23;20474;-89
2022/01/25 14:58:22;;;;;;;54.83;27.73;;;5.30;99.90;;;;;;6175793;23;20013;-89
2022/01/25 15:00:53;;;;;;;59.72;27.00;;;5.30;99.90;;;;;;6176156;23;20453;-89
2022/01/25 15:03:19;;;;;;;64.38;28.10;;;5.30;99.90;;;;;;6160180;23;20642;-88
2022/01/25 16:58:23;;;;;;;60.80;26.52;;;4.30;99.90;;;;;;6218213;23;20269;-93
2022/01/25 17:00:58;;;;;;;51.35;23.98;;;4.20;99.90;;;;;;6145887;23;20079;-93
2022/01/25 17:03:28;;;;;;;;;;;4.20;99.90;;;;;;6179220;23;20318;-95